Latest Weather Observations for Wynyard

IDT60801

Issued at 5:02 pm EST Tuesday 26 September 2017 (issued every 30 minutes, with the page automatically refreshed every 10 minutes)

About weather observations | Map of weather stations | Latest weather observations for TAS | Other Formats
Station Details ID: 091107 Name: WYNYARD AIRPORT Lat: -41.00 Lon: 145.73 Height: 12.0 m
Data from the previous 72 hours. | See also: Recent months at Wynyard
Date/Time
EST
Temp
°C
App
Temp
°C
Dew
Point
°C
Rel
Hum
%
Delta-T
°C
Wind Press
QNH
hPa
Press
MSL
hPa
Rain since
9am
mm
Dir  Spd
km/h
Gust
km/h
Spd
kts
Gust
kts
26/05:00pm 11.3 6.4 2.3 54 3.9 W 17 24 9 13 1014.7 1014.8 0.0
26/04:30pm 12.0 5.7 3.8 57 3.7 WSW 26 33 14 18 1014.6 1014.7 0.0
26/04:00pm 12.2 5.1 3.4 55 3.9 WSW 30 37 16 20 1014.4 1014.5 0.0
26/03:30pm 12.5 7.3 3.7 55 3.9 W 20 30 11 16 1014.4 1014.5 0.0
26/03:00pm 12.6 7.7 4.1 56 3.8 WSW 19 26 10 14 1014.4 1014.5 0.0
26/02:30pm 12.4 6.9 3.9 56 3.8 WNW 22 37 12 20 1014.3 1014.4 0.0
26/02:00pm 12.7 6.6 4.7 58 3.7 W 26 35 14 19 1014.5 1014.6 0.0
26/01:30pm 13.4 8.2 3.8 52 4.3 W 20 28 11 15 1014.5 1014.6 0.0
26/01:00pm 12.0 6.9 4.0 58 3.6 WSW 20 28 11 15 1014.7 1014.8 0.0
26/12:30pm 12.8 7.2 3.2 52 4.3 WSW 22 30 12 16 1015.0 1015.1 0.0
26/12:00pm 12.7 8.1 3.9 55 4.0 W 17 26 9 14 1015.1 1015.2 0.0
26/11:30am 12.4 7.6 4.4 58 3.6 WSW 19 26 10 14 1015.2 1015.3 0.0
26/11:00am 12.0 6.5 4.0 58 3.6 WSW 22 30 12 16 1015.3 1015.4 0.0
26/10:30am 12.2 7.6 3.7 56 3.8 W 17 24 9 13 1015.4 1015.5 0.0
26/10:00am 11.9 6.3 3.4 56 3.8 W 22 35 12 19 1015.6 1015.7 0.0
26/09:30am 10.7 6.6 4.4 65 2.8 WSW 15 20 8 11 1015.6 1015.7 0.0
26/09:00am 9.9 5.4 4.1 67 2.6 WSW 17 20 9 11 1015.7 1015.8 0.0
26/08:30am 9.0 4.9 4.6 74 1.9 W 15 19 8 10 1015.4 1015.5 0.0
26/08:00am 7.4 3.2 3.8 78 1.5 W 15 19 8 10 1015.4 1015.5 0.0
26/07:30am 5.8 2.0 3.8 87 0.8 W 13 19 7 10 1015.2 1015.3 0.0
26/07:00am 3.2 0.3 2.6 96 0.2 WSW 7 11 4 6 1015.0 1015.1 0.0
26/06:30am 1.8 -2.5 0.8 93 0.4 WNW 13 15 7 8 1014.6 1014.7 0.0
26/06:00am 0.7 -3.4 0.0 95 0.3 W 11 13 6 7 1014.3 1014.4 0.0
26/05:30am 0.5 -3.6 -0.2 95 0.3 W 11 15 6 8 1014.1 1014.2 0.0
26/05:00am 0.9 -2.7 0.3 96 0.2 W 9 13 5 7 1013.6 1013.7 0.0
26/04:30am 1.1 -2.9 0.5 96 0.2 W 11 13 6 7 1013.2 1013.3 0.0
26/04:00am 1.7 -3.3 1.1 96 0.2 W 17 17 9 9 1013.0 1013.1 0.0
26/03:30am 1.8 -1.7 1.2 96 0.2 W 9 11 5 6 1012.9 1013.0 0.0
26/03:00am 2.0 -2.3 1.0 93 0.4 WNW 13 13 7 7 1012.7 1012.8 0.0
26/02:30am 2.3 -1.6 1.4 94 0.3 W 11 13 6 7 1012.6 1012.7 0.0
26/02:00am 2.2 -2.5 1.2 93 0.4 W 15 17 8 9 1012.6 1012.7 0.0
26/01:30am 3.2 -0.1 2.5 95 0.3 WNW 9 11 5 6 1012.7 1012.8 0.0
26/01:00am 2.8 -1.4 1.6 92 0.5 W 13 13 7 7 1012.7 1012.8 0.0
26/12:30am 3.6 0.4 2.9 95 0.3 W 9 11 5 6 1012.7 1012.8 0.0
26/12:00am 3.0 -1.1 2.0 93 0.4 WNW 13 17 7 9 1012.3 1012.4 0.0
 
Date/Time
EST
Temp
°C
App
Temp
°C
Dew
Point
°C
Rel
Hum
%
Delta-T
°C
Wind Press
QNH
hPa
Press
MSL
hPa
Rain since
9am
mm
Dir  Spd
km/h
Gust
km/h
Spd
kts
Gust
kts
25/11:30pm 3.0 -1.1 2.1 94 0.4 W 13 17 7 9 1012.1 1012.2 0.0
25/11:00pm 2.2 -2.1 1.3 94 0.3 W 13 13 7 7 1012.2 1012.3 0.0
25/10:30pm 3.5 -0.9 2.5 93 0.4 WNW 15 15 8 8 1012.1 1012.2 0.0
25/10:00pm 2.9 -1.0 1.3 89 0.6 W 11 13 6 7 1011.9 1012.0 0.0
25/09:30pm 4.1 1.2 2.5 89 0.6 WSW 7 11 4 6 1011.8 1011.9 0.0
25/09:00pm 3.9 0.2 2.1 88 0.7 W 11 13 6 7 1011.5 1011.6 0.0
25/08:30pm 5.8 1.8 3.1 83 1.1 W 13 15 7 8 1011.0 1011.1 0.0
25/08:00pm 5.8 2.1 2.4 79 1.4 W 11 13 6 7 1010.5 1010.6 0.0
25/07:30pm 6.9 2.2 3.0 76 1.6 WSW 17 24 9 13 1010.0 1010.1 0.0
25/07:00pm 7.4 2.6 2.5 71 2.0 W 17 24 9 13 1009.6 1009.7 0.0
25/06:30pm 7.3 3.2 2.0 69 2.2 W 13 17 7 9 1009.0 1009.1 0.0
25/06:00pm 8.9 4.4 2.0 62 2.9 SW 15 24 8 13 1008.4 1008.5 0.0
25/05:30pm 9.6 3.5 2.7 62 2.9 W 24 35 13 19 1007.7 1007.8 0.0
25/05:00pm 10.2 3.3 2.3 58 3.4 WSW 28 39 15 21 1007.2 1007.3 0.0
25/04:30pm 10.8 2.4 3.6 61 3.2 WSW 37 50 20 27 1006.7 1006.8 0.0
25/04:00pm 11.8 4.7 3.6 57 3.7 W 30 46 16 25 1006.1 1006.1 0.0
25/03:33pm 11.7 4.7 4.0 59 3.4 W 30 48 16 26 1005.7 1005.7 0.0
25/03:30pm 11.4 4.4 3.9 60 3.3 W 30 41 16 22 1005.7 1005.7 0.0
25/03:00pm 12.0 6.1 3.8 57 3.7 SW 24 37 13 20 1005.4 1005.4 0.0
25/02:30pm 12.1 4.8 4.3 59 3.5 WSW 32 44 17 24 1005.1 1005.1 0.0
25/02:00pm 12.3 4.2 3.5 55 3.9 WSW 35 50 19 27 1004.8 1004.8 0.0
25/01:31pm 10.9 2.9 3.9 62 3.1 WSW 35 54 19 29 1004.7 1004.7 0.0
25/01:30pm 11.0 2.7 4.2 63 3.0 WSW 37 54 20 29 1004.7 1004.7 0.0
25/01:22pm 10.9 3.1 4.8 66 2.8 WSW 35 54 19 29 1004.7 1004.7 0.0
25/01:00pm 11.4 4.1 4.6 63 3.1 WSW 32 44 17 24 1004.5 1004.5 0.0
25/12:30pm 11.8 4.5 4.5 61 3.3 WSW 32 44 17 24 1004.3 1004.3 0.0
25/12:00pm 12.4 5.2 5.8 64 3.1 WSW 33 44 18 24 1004.1 1004.1 0.0
25/11:30am 10.9 4.0 6.3 73 2.2 WSW 32 44 17 24 1003.9 1003.9 0.0
25/11:00am 10.1 3.4 5.7 74 2.0 WSW 30 44 16 24 1003.8 1003.8 0.0
25/10:30am 10.4 4.2 6.0 74 2.0 SW 28 46 15 25 1003.5 1003.5 0.0
25/10:21am 10.2 3.8 5.4 72 2.2 WSW 28 50 15 27 1003.4 1003.4 0.0
25/10:00am 10.8 3.3 3.6 61 3.2 WSW 32 43 17 23 1003.2 1003.2 0.0
25/09:49am 11.3 5.0 5.8 69 2.6 WSW 28 46 15 25 1003.1 1003.1 0.0
25/09:30am 10.6 4.6 5.4 70 2.4 WSW 26 39 14 21 1003.0 1003.0 0.0
25/09:00am 10.1 4.4 5.1 71 2.3 WSW 24 35 13 19 1002.8 1002.8 24.4
25/08:30am 9.7 3.6 4.7 71 2.2 WSW 26 39 14 21 1002.3 1002.3 24.4
25/08:00am 9.1 4.3 4.5 73 2.0 W 19 28 10 15 1001.7 1001.7 24.4
25/07:30am 8.3 4.0 5.2 81 1.4 W 17 24 9 13 1001.3 1001.3 24.4
25/07:00am 6.8 2.8 4.8 87 0.9 WNW 15 20 8 11 1000.9 1000.9 24.4
25/06:30am 5.2 1.0 3.9 91 0.5 W 15 17 8 9 1000.7 1000.7 24.4
25/06:00am 5.2 0.9 3.5 89 0.7 W 15 17 8 9 1000.2 1000.2 24.4
25/05:30am 5.5 1.3 3.7 88 0.8 W 15 19 8 10 999.6 999.6 24.4
25/05:00am 6.4 1.5 4.2 86 0.9 W 19 22 10 12 999.1 999.1 24.4
25/04:30am 6.5 1.7 4.5 87 0.9 WNW 19 24 10 13 998.7 998.7 24.4
25/04:00am 6.7 1.9 4.4 85 1.0 W 19 22 10 12 998.1 998.1 24.4
25/03:30am 7.0 2.9 4.3 83 1.2 W 15 20 8 11 997.6 997.6 24.4
25/03:00am 7.2 3.5 4.3 82 1.3 W 13 20 7 11 997.3 997.3 24.4
25/02:30am 7.7 3.3 5.0 83 1.2 W 17 22 9 12 996.8 996.8 24.4
25/02:00am 8.1 3.8 5.4 83 1.2 W 17 24 9 13 996.7 996.7 24.4
25/01:30am 8.4 4.3 6.2 86 1.0 W 17 20 9 11 996.4 996.4 24.4
25/01:00am 8.7 5.0 6.5 86 1.0 W 15 20 8 11 995.8 995.8 24.4
25/12:30am 9.3 4.0 6.7 84 1.2 WSW 24 39 13 21 995.1 995.1 24.4
25/12:00am 9.5 5.1 7.4 87 1.0 W 20 28 11 15 994.4 994.4 24.4
 
Date/Time
EST
Temp
°C
App
Temp
°C
Dew
Point
°C
Rel
Hum
%
Delta-T
°C
Wind Press
QNH
hPa
Press
MSL
hPa
Rain since
9am
mm
Dir  Spd
km/h
Gust
km/h
Spd
kts
Gust
kts
24/11:30pm 9.7 5.4 7.8 88 0.9 WSW 20 30 11 16 993.7 993.7 24.4
24/11:00pm 9.8 5.8 8.4 91 0.7 W 19 24 10 13 993.2 993.2 24.4
24/10:30pm 9.8 6.3 8.6 92 0.6 W 17 22 9 12 992.8 992.8 24.2
24/10:00pm 9.7 6.5 8.3 91 0.7 WNW 15 19 8 10 992.4 992.4 24.2
24/09:30pm 9.9 5.9 8.2 89 0.8 W 19 26 10 14 992.0 992.0 24.2
24/09:07pm 10.1 5.6 8.7 91 0.7 WNW 22 28 12 15 991.6 991.6 24.2
24/09:00pm 10.2 5.4 8.8 91 0.7 WNW 24 33 13 18 991.6 991.6 24.2
24/08:49pm 10.5 6.5 9.1 91 0.7 WNW 20 28 11 15 991.4 991.4 24.2
24/08:30pm 10.7 6.9 9.1 90 0.8 WNW 19 26 10 14 991.3 991.3 24.2
24/08:00pm 10.7 6.6 8.6 87 1.0 WNW 20 30 11 16 991.4 991.4 24.0
24/07:30pm 10.7 8.1 9.3 91 0.7 W 13 17 7 9 990.9 990.9 24.0
24/07:09pm 11.3 6.7 9.7 90 0.8 WNW 24 35 13 19 990.9 990.9 23.6
24/07:00pm 11.2 7.3 9.6 90 0.8 WNW 20 33 11 18 990.8 990.8 23.6
24/06:41pm 11.4 8.6 10.0 91 0.7 NW 15 22 8 12 990.9 990.9 21.8
24/06:30pm 11.0 8.5 9.6 91 0.7 WNW 13 17 7 9 990.8 990.8 21.2
24/06:00pm 10.9 6.2 9.3 90 0.8 WNW 24 37 13 20 991.1 991.1 21.2
24/05:45pm 11.0 7.4 9.8 92 0.6 WNW 19 26 10 14 991.0 991.0 20.6
24/05:30pm 10.8 6.1 9.4 91 0.7 WNW 24 37 13 20 991.1 991.1 20.4
24/05:08pm 11.3 6.7 9.6 89 0.9 NW 24 39 13 21 990.9 990.9 18.0
24/05:00pm 11.7 6.7 9.4 86 1.2 WNW 26 35 14 19 990.9 990.9 17.4
24/04:30pm 12.2 7.2 9.6 84 1.3 WNW 26 41 14 22 991.1 991.1 17.2
24/04:11pm 12.1 6.4 9.8 86 1.2 WNW 30 50 16 27 991.0 991.0 16.8
24/04:07pm 11.9 5.8 9.8 87 1.1 WNW 32 50 17 27 991.0 991.0 16.8
24/04:00pm 11.8 5.6 9.9 88 1.0 WNW 33 50 18 27 990.9 990.9 16.8
24/03:50pm 11.4 5.9 9.1 86 1.1 WNW 28 46 15 25 991.0 991.0 16.6
24/03:47pm 11.7 6.7 9.4 86 1.2 WNW 26 39 14 21 991.2 991.2 15.8
24/03:39pm 12.3 6.6 9.7 84 1.3 WNW 30 48 16 26 990.9 990.9 15.0
24/03:30pm 12.7 6.5 9.5 81 1.6 NW 32 48 17 26 991.1 991.1 15.0
24/03:02pm 12.7 5.7 9.9 83 1.4 WNW 37 52 20 28 991.1 991.1 15.0
24/03:00pm 12.3 5.1 9.1 81 1.6 WNW 37 54 20 29 991.1 991.1 15.0
24/02:43pm 11.3 5.9 9.6 89 0.9 NW 28 52 15 28 991.0 991.0 15.0
24/02:42pm 11.3 6.3 9.4 88 1.0 NW 26 52 14 28 991.1 991.1 14.6
24/02:30pm 12.7 7.6 10.6 87 1.1 NW 28 35 15 19 991.0 991.0 13.6
24/02:29pm 12.4 7.1 10.0 85 1.2 NW 28 43 15 23 991.1 991.1 13.6
24/02:08pm 11.5 6.1 9.4 87 1.1 NW 28 52 15 28 991.1 991.1 12.8
24/02:00pm 12.0 8.4 10.4 90 0.8 WNW 20 32 11 17 991.1 991.1 12.8
24/01:43pm 11.6 5.6 8.8 83 1.4 NW 30 44 16 24 991.2 991.2 11.2
24/01:30pm 13.1 7.2 11.0 87 1.1 NW 33 46 18 25 991.3 991.3 10.6
24/01:11pm 12.9 7.2 9.7 81 1.6 WNW 30 48 16 26 991.3 991.3 10.6
24/01:00pm 13.2 7.1 9.8 80 1.8 WNW 32 44 17 24 991.4 991.4 10.6
24/12:46pm 13.4 8.5 11.3 87 1.1 NW 28 39 15 21 991.5 991.5 10.6
24/12:30pm 10.8 4.6 9.2 90 0.8 NW 32 48 17 26 991.7 991.7 10.6
24/12:10pm 10.5 3.5 8.6 88 0.9 WNW 35 54 19 29 991.8 991.8 5.0
24/12:00pm 11.6 5.2 9.2 85 1.2 WNW 33 50 18 27 991.7 991.7 2.0
24/11:47am 11.8 5.8 8.8 82 1.5 NW 30 48 16 26 991.7 991.7 1.4
24/11:38am 12.5 7.0 9.0 79 1.8 NW 28 56 15 30 991.5 991.5 1.2
24/11:33am 12.4 8.1 9.4 82 1.5 WNW 22 56 12 30 991.5 991.5 0.8
24/11:30am 12.2 7.9 9.2 82 1.5 WNW 22 56 12 30 991.4 991.4 0.8
24/11:09am 11.7 5.8 9.1 84 1.3 NNW 30 44 16 24 991.7 991.7 0.4
24/11:00am 12.7 8.3 8.8 77 2.0 NW 22 32 12 17 991.6 991.6 0.0
24/10:30am 12.8 8.1 9.1 78 1.9 WNW 24 32 13 17 991.8 991.8 0.0
24/10:00am 12.7 7.2 9.2 79 1.8 WNW 28 41 15 22 991.9 991.9 0.0
24/09:30am 12.8 6.5 9.1 78 1.9 WNW 32 46 17 25 991.9 991.9 0.0
24/09:00am 12.8 8.9 9.6 81 1.6 WNW 20 30 11 16 991.8 991.8 9.6
24/08:30am 12.0 7.4 9.7 86 1.2 W 24 41 13 22 991.9 991.9 9.6
24/08:11am 11.7 7.0 9.4 86 1.2 WNW 24 39 13 21 991.8 991.8 9.6
24/08:00am 11.7 7.4 9.4 86 1.2 WNW 22 35 12 19 991.8 991.8 9.6
24/07:58am 11.8 7.6 9.7 87 1.1 WNW 22 33 12 18 991.7 991.7 9.6
24/07:30am 11.5 7.2 9.4 87 1.1 WNW 22 32 12 17 991.8 991.8 9.6
24/07:00am 11.0 7.6 9.3 89 0.9 WNW 17 28 9 15 991.7 991.7 9.6
24/06:30am 10.9 7.5 9.3 90 0.8 WNW 17 22 9 12 991.7 991.7 9.6
24/06:10am 10.7 7.3 9.3 91 0.7 WNW 17 24 9 13 991.6 991.6 9.4
24/06:00am 10.7 7.4 9.6 93 0.6 WNW 17 24 9 13 991.4 991.4 9.4
24/05:35am 11.0 6.3 9.3 89 0.8 WNW 24 33 13 18 991.3 991.3 8.8
24/05:30am 11.1 6.7 9.0 87 1.0 NW 22 32 12 17 991.3 991.3 8.6
24/05:00am 10.7 7.2 8.6 87 1.0 WNW 17 26 9 14 991.1 991.1 8.6
24/04:30am 10.8 6.3 8.7 87 1.0 WNW 22 30 12 16 991.2 991.2 8.6
24/04:00am 11.1 6.8 9.5 90 0.8 WNW 22 32 12 17 991.2 991.2 8.6
24/03:38am 10.8 7.2 9.7 93 0.6 WNW 19 28 10 15 991.3 991.3 8.4
24/03:30am 10.8 6.9 9.6 92 0.6 WNW 20 28 11 15 991.4 991.4 8.4
24/03:00am 10.9 6.3 9.5 91 0.7 WNW 24 35 13 19 991.3 991.3 7.0
24/02:50am 11.2 6.2 9.5 89 0.9 WNW 26 35 14 19 991.3 991.3 6.8
24/02:30am 11.4 6.6 9.0 85 1.2 WNW 24 33 13 18 991.3 991.3 6.2
24/02:00am 11.5 6.0 9.1 85 1.2 WNW 28 41 15 22 991.4 991.4 6.2
24/01:34am 11.3 5.8 9.0 86 1.1 WNW 28 39 15 21 991.4 991.4 6.2
24/01:30am 11.2 6.1 9.1 87 1.0 WNW 26 39 14 21 991.4 991.4 6.2
24/01:08am 11.5 6.9 9.6 88 1.0 WNW 24 33 13 18 991.6 991.6 6.0
24/01:00am 11.7 7.0 9.3 85 1.2 NW 24 32 13 17 991.7 991.7 5.8
24/12:30am 12.0 6.0 8.7 80 1.6 WNW 30 46 16 25 991.7 991.7 5.8
24/12:01am 12.2 5.3 8.7 79 1.7 WNW 35 56 19 30 991.7 991.7 5.8
24/12:00am 12.1 5.8 8.8 80 1.7 WNW 32 48 17 26 991.8 991.8 5.8
 
Date/Time
EST
Temp
°C
App
Temp
°C
Dew
Point
°C
Rel
Hum
%
Delta-T
°C
Wind Press
QNH
hPa
Press
MSL
hPa
Rain since
9am
mm
Dir  Spd
km/h
Gust
km/h
Spd
kts
Gust
kts
23/11:30pm 12.3 6.1 9.5 83 1.4 WNW 32 41 17 22 991.7 991.7 5.8
23/11:00pm 12.4 6.8 10.1 86 1.2 WNW 30 39 16 21 991.8 991.8 5.8
23/10:30pm 12.3 7.8 10.2 87 1.1 NW 24 39 13 21 991.9 991.9 5.8
23/10:00pm 11.9 7.8 10.0 88 1.0 WNW 22 35 12 19 991.8 991.8 5.8
23/09:39pm 11.9 8.9 10.8 93 0.6 WNW 17 24 9 13 992.0 992.0 5.8
23/09:30pm 12.0 9.0 10.7 92 0.7 NW 17 24 9 13 991.9 991.9 5.4
23/09:24pm 12.1 8.7 10.7 91 0.7 NW 19 24 10 13 991.9 991.9 5.2
23/09:13pm 12.3 8.7 10.5 89 0.9 NW 20 26 11 14 992.0 992.0 5.2
23/09:00pm 12.2 8.7 10.1 87 1.1 NW 19 24 10 13 992.0 992.0 5.2
23/08:30pm 12.0 8.9 10.2 89 0.9 NW 17 20 9 11 992.0 992.0 5.2
23/08:00pm 11.8 9.0 10.0 89 0.9 NW 15 20 8 11 991.9 991.9 5.2
23/07:30pm 12.0 9.6 9.9 87 1.1 NNW 13 17 7 9 992.1 992.1 5.2
23/07:00pm 11.8 11.1 10.0 89 0.9 W 4 7 2 4 990.4 990.4 5.2
23/06:30pm 12.3 9.6 10.2 87 1.1 W 15 20 8 11 991.9 991.9 5.2
23/06:03pm 12.6 6.6 10.8 89 0.9 WNW 33 46 18 25 992.2 992.2 5.2
23/06:00pm 12.6 6.6 10.8 89 0.9 NW 33 46 18 25 992.0 992.0 5.2
23/05:46pm 13.0 7.8 11.7 92 0.7 NW 30 48 16 26 992.3 992.3 5.0
23/05:42pm 13.2 10.0 11.8 91 0.7 NW 20 39 11 21 992.4 992.4 4.4
23/05:31pm 13.5 11.2 11.9 90 0.9 NW 15 20 8 11 991.7 991.7 3.0
23/05:30pm 13.6 11.4 12.0 90 0.9 NW 15 20 8 11 991.7 991.7 3.0
23/05:13pm 14.2 10.2 11.9 86 1.2 WNW 24 30 13 16 991.5 991.5 1.6

Other Formats:

Comma delimited format used in spreadsheet applications
http://www.bom.gov.au/fwo/IDT60801/IDT60801.95957.axf

JavaScript Object Notation format (JSON) in row-major order
http://www.bom.gov.au/fwo/IDT60801/IDT60801.95957.json